createdAt,value
2022-10-13T00:09:32.821Z,44.25
2022-10-13T00:19:34.498Z,46.05
2022-10-13T00:29:39.336Z,45.35
2022-10-13T00:39:41.024Z,44.83
2022-10-13T00:49:47.217Z,45.90
2022-10-13T00:59:49.319Z,44.45
2022-10-13T01:10:04.323Z,43.13
2022-10-13T01:20:30.137Z,43.17
2022-10-13T01:30:46.646Z,40.20
2022-10-13T01:40:59.596Z,42.08
2022-10-13T01:51:01.705Z,43.23
2022-10-13T02:01:20.698Z,43.50
2022-10-13T02:11:24.610Z,44.28
2022-10-13T02:21:26.565Z,42.10
2022-10-13T02:31:28.229Z,49.55
2022-10-13T02:41:30.859Z,45.72
2022-10-13T02:51:35.147Z,45.60
2022-10-13T03:01:42.257Z,44.53
2022-10-13T03:11:43.955Z,43.45
2022-10-13T03:21:47.590Z,45.00
2022-10-13T03:31:52.358Z,43.15
2022-10-13T03:41:53.998Z,42.67
2022-10-13T03:52:01.744Z,46.13
2022-10-13T04:02:03.501Z,46.10
2022-10-13T04:12:05.357Z,42.78
2022-10-13T04:22:08.962Z,43.30
2022-10-13T04:42:17.580Z,41.85
2022-10-13T04:52:19.834Z,44.10
2022-10-13T05:02:22.039Z,44.55
2022-10-13T05:12:29.197Z,42.65
2022-10-13T05:22:31.385Z,43.63
2022-10-13T05:32:35.678Z,42.70
2022-10-13T05:42:37.383Z,45.75
2022-10-13T05:52:47.007Z,46.33
2022-10-13T06:02:54.695Z,41.67
2022-10-13T06:12:58.251Z,45.38
2022-10-13T06:23:00.025Z,46.88
2022-10-13T06:33:01.759Z,48.30
2022-10-13T06:43:04.169Z,46.97
2022-10-13T06:53:05.815Z,46.80
2022-10-13T07:03:07.847Z,44.03
2022-10-13T07:13:13.130Z,40.92
2022-10-13T07:23:14.860Z,32.38
2022-10-13T07:33:17.240Z,28.10
2022-10-13T07:43:20.341Z,22.40
2022-10-13T07:53:32.624Z,18.80
2022-10-13T08:03:34.477Z,13.97
2022-10-13T08:13:37.191Z,12.23
2022-10-13T08:23:39.862Z,11.73
2022-10-13T08:33:41.658Z,13.23
2022-10-13T08:54:26.757Z,11.98
2022-10-13T09:04:36.727Z,9.45
2022-10-13T09:14:39.930Z,8.85
2022-10-13T09:24:42.814Z,8.90
2022-10-13T09:34:45.073Z,8.35
2022-10-13T09:44:58.688Z,10.35
2022-10-13T09:55:01.241Z,9.93
2022-10-13T10:05:27.361Z,11.30
2022-10-13T10:15:53.578Z,9.88
2022-10-13T10:26:24.235Z,8.55
2022-10-13T10:36:44.050Z,8.15
2022-10-13T10:46:51.073Z,8.32
2022-10-13T10:57:13.702Z,8.65
2022-10-13T11:07:15.238Z,8.15
2022-10-13T11:17:31.144Z,8.27
2022-10-13T11:27:32.764Z,7.22
2022-10-13T11:38:06.088Z,8.25
2022-10-13T11:48:30.712Z,8.68
2022-10-13T11:58:34.003Z,8.13
2022-10-13T12:08:39.354Z,9.00
2022-10-13T12:18:43.254Z,8.90
2022-10-13T12:29:01.184Z,8.13
2022-10-13T12:39:13.972Z,7.90
2022-10-13T12:49:34.222Z,9.80
2022-10-13T12:59:42.013Z,11.93
2022-10-13T13:19:47.933Z,10.43
2022-10-13T13:29:49.703Z,8.88
2022-10-13T13:39:51.528Z,10.10
2022-10-13T13:49:56.081Z,8.93
2022-10-13T13:59:58.263Z,8.90
2022-10-13T14:10:02.314Z,15.93
2022-10-13T14:20:06.856Z,9.45
2022-10-13T14:30:11.495Z,9.82
2022-10-13T14:40:13.053Z,10.43
2022-10-13T14:50:14.647Z,10.23
2022-10-13T15:00:17.799Z,10.60
2022-10-13T15:10:20.601Z,11.02
2022-10-13T15:20:25.532Z,12.45
2022-10-13T15:30:27.155Z,10.25
2022-10-13T15:40:28.872Z,10.95
2022-10-13T15:50:30.499Z,11.77
2022-10-13T16:00:38.351Z,12.90
2022-10-13T16:10:41.481Z,12.30
2022-10-13T16:20:45.457Z,16.05
2022-10-13T16:30:47.179Z,17.33
2022-10-13T16:40:48.682Z,18.57
2022-10-13T16:50:50.806Z,19.00
2022-10-13T17:01:03.436Z,22.43
2022-10-13T17:11:06.939Z,20.23
2022-10-13T17:21:10.426Z,23.85
2022-10-13T17:31:22.989Z,24.38
2022-10-13T17:41:25.322Z,24.17
2022-10-13T17:51:28.353Z,24.13
2022-10-13T18:01:34.061Z,24.73
2022-10-13T18:11:39.020Z,24.83
2022-10-13T18:21:42.485Z,24.73
2022-10-13T18:31:44.666Z,27.10
2022-10-13T18:41:47.633Z,27.13
2022-10-13T18:52:02.459Z,27.13
2022-10-13T19:02:05.729Z,30.17
2022-10-13T19:12:07.979Z,30.15
2022-10-13T19:22:10.673Z,28.45
2022-10-13T19:32:14.231Z,29.83
2022-10-13T19:42:24.029Z,28.63
2022-10-13T19:52:26.149Z,32.08
2022-10-13T20:02:30.493Z,32.88
2022-10-13T20:12:39.061Z,31.65
2022-10-13T20:22:40.878Z,32.63
2022-10-13T20:32:42.806Z,34.13
2022-10-13T20:42:49.669Z,32.72
2022-10-13T20:52:51.185Z,32.88
2022-10-13T21:02:52.779Z,33.22
2022-10-13T21:12:54.948Z,34.30
2022-10-13T21:22:58.327Z,34.72
2022-10-13T21:43:01.538Z,35.28
2022-10-13T21:53:04.625Z,35.38
2022-10-13T22:03:06.393Z,35.63
2022-10-13T22:13:08.142Z,35.00
2022-10-13T22:23:09.679Z,35.90
2022-10-13T22:33:11.291Z,35.80
2022-10-13T22:43:12.978Z,35.10
2022-10-13T22:53:18.804Z,39.35
2022-10-13T23:03:20.865Z,36.38
2022-10-13T23:13:23.614Z,35.83
2022-10-13T23:23:26.213Z,37.00
2022-10-13T23:33:28.143Z,35.47
2022-10-13T23:43:30.836Z,38.05
2022-10-13T23:53:37.087Z,35.87
